Startpagina
METAR-TAF:

METAR-TAF

Vliegvelden :

Luchthaven Prins Said Ibrahim

Moroni, Comoren

breedte: 11-32S, lengte: 043-16E, hoogte: 29 m

Actueel weer

Dit bericht is 17 minuten geleden gemaakt, om 05:00 UTC
Wind 3 kt uit variabele richting
Temperatuur 28°C
Vochtigheid 66%
Druk 1014 hPa
Zicht 10 km of meer
Weinig wolken op 2000 ft

METAR: FMCH 210500Z VRB03KT 9999 FEW020 28/21 Q1014 NOSIG

Tijdstip: 08:17 (05:17 UTC)

Verwachting

Dit bericht is 12 uur en het 17 minuten geleden gemaakt, om 17:00 UTC
Verwachting geldig van 20 om 18 UTC tot 21 om 24 UTC
Wind 5 kt uit het oostzuidoosten
Zicht 10 km of meer
Weinig wolken op 2000 ft
Wijzigt naar
van 21 om 05 UTC tot 21 om 07 UTC
Wind 12 kt uit het zuidzuidwesten
Kans 30% :
Tijdelijke
van 21 om 12 UTC tot 21 om 16 UTC
Zicht: 4500 m
regenbuien
Wijzigt naar
van 21 om 16 UTC tot 21 om 18 UTC
Wind 5 kt uit het oosten

TAF: FMCH 201700Z 2018/2124 12005KT 9999 FEW020 BECMG 2105/2107 20012KT PROB30 TEMPO 2112/2116 4500 SHRA BECMG 2116/2118 10005KT

Waarnemingen en weersverwachtingen van meer dan 4000 vliegvelden (METAR en TAF).

De beschikbare stations zijn de gele en rode punten op de kaart.

Ga met uw muis naar het station om de naam te zien.

Klik dan om waarnemingen en weersverwachtingen te zien.

kaart wijzigen: klik op de groene knoppen met een zwart kruis om in te zoomen, op de groene knop met een streepje om uit te zoomen of op de groene pijlen voor aangrenzende kaarten.


METAR-TAF: